createdAt,value
2022-08-17T00:02:25.334Z,4.30
2022-08-17T00:04:54.536Z,3.73
2022-08-17T00:07:21.258Z,5.00
2022-08-17T00:09:48.193Z,4.77
2022-08-17T00:12:43.178Z,4.50
2022-08-17T00:15:02.313Z,4.80
2022-08-17T00:17:29.171Z,3.50
2022-08-17T00:19:55.860Z,4.80
2022-08-17T00:22:35.328Z,4.00
2022-08-17T00:25:07.536Z,3.93
2022-08-17T00:27:34.952Z,4.80
2022-08-17T00:30:02.155Z,4.00
2022-08-17T00:33:15.124Z,4.37
2022-08-17T00:35:19.414Z,3.60
2022-08-17T00:37:46.229Z,4.97
2022-08-17T00:40:15.097Z,3.77
2022-08-17T00:42:43.414Z,4.67
2022-08-17T00:45:12.877Z,4.10
2022-08-17T00:47:40.407Z,4.30
2022-08-17T00:50:10.767Z,4.13
2022-08-17T00:52:43.693Z,4.60
2022-08-17T00:55:11.080Z,4.10
2022-08-17T00:57:43.339Z,4.20
2022-08-17T01:00:15.747Z,4.70
2022-08-17T01:02:45.322Z,4.47
2022-08-17T01:05:16.399Z,4.60
2022-08-17T01:07:47.613Z,4.67
2022-08-17T01:10:58.227Z,4.43
2022-08-17T01:13:04.053Z,4.50
2022-08-17T01:15:36.518Z,4.90
2022-08-17T01:18:05.470Z,4.40
2022-08-17T01:20:32.509Z,4.77
2022-08-17T01:23:20.534Z,3.67
2022-08-17T01:25:53.299Z,4.43
2022-08-17T01:28:52.716Z,4.27
2022-08-17T01:31:08.886Z,4.60
2022-08-17T01:33:36.658Z,3.93
2022-08-17T01:36:07.018Z,4.40
2022-08-17T01:38:37.846Z,4.53
2022-08-17T01:41:13.641Z,4.00
2022-08-17T01:43:47.445Z,5.07
2022-08-17T01:46:22.750Z,4.50
2022-08-17T01:48:51.166Z,4.50
2022-08-17T01:51:18.149Z,3.80
2022-08-17T01:53:50.120Z,3.80
2022-08-17T01:56:20.401Z,4.10
2022-08-17T01:58:48.055Z,3.93
2022-08-17T02:01:19.588Z,4.10
2022-08-17T02:03:53.225Z,4.70
2022-08-17T02:06:28.491Z,4.30
2022-08-17T02:09:02.835Z,4.07
2022-08-17T02:11:33.061Z,4.53
2022-08-17T02:14:03.360Z,4.50
2022-08-17T02:16:37.333Z,4.83
2022-08-17T02:19:10.145Z,4.40
2022-08-17T02:21:37.783Z,5.10
2022-08-17T02:24:08.196Z,4.30
2022-08-17T02:26:35.172Z,4.03
2022-08-17T02:29:02.014Z,4.97
2022-08-17T02:31:31.025Z,4.87
2022-08-17T02:34:03.681Z,4.83
2022-08-17T02:36:33.886Z,4.80
2022-08-17T02:39:06.270Z,4.70
2022-08-17T02:41:33.435Z,4.47
2022-08-17T02:44:00.284Z,4.63
2022-08-17T02:46:27.312Z,4.20
2022-08-17T02:48:54.162Z,4.10
2022-08-17T02:51:20.859Z,3.63
2022-08-17T02:53:47.635Z,5.20
2022-08-17T02:56:14.341Z,4.40
2022-08-17T02:58:41.241Z,4.97
2022-08-17T03:01:09.771Z,5.90
2022-08-17T03:03:37.773Z,5.80
2022-08-17T03:06:06.125Z,5.30
2022-08-17T03:08:32.890Z,4.80
2022-08-17T03:10:59.695Z,5.90
2022-08-17T03:13:27.164Z,5.07
2022-08-17T03:15:54.011Z,4.80
2022-08-17T03:18:25.082Z,5.00
2022-08-17T03:20:58.128Z,5.50
2022-08-17T03:23:25.868Z,5.40
2022-08-17T03:25:55.098Z,5.43
2022-08-17T03:28:22.994Z,5.50
2022-08-17T03:30:51.215Z,5.73
2022-08-17T03:33:19.124Z,6.40
2022-08-17T03:35:46.332Z,5.20
2022-08-17T03:38:15.318Z,5.30
2022-08-17T03:40:57.192Z,5.57
2022-08-17T03:43:30.111Z,5.30
2022-08-17T03:46:27.644Z,5.40
2022-08-17T03:49:19.153Z,4.60
2022-08-17T03:52:04.564Z,4.57
2022-08-17T03:54:50.228Z,3.50
2022-08-17T03:57:17.054Z,4.30
2022-08-17T03:59:44.879Z,3.63
2022-08-17T04:02:19.060Z,4.60
2022-08-17T04:04:45.839Z,4.00
2022-08-17T04:07:12.736Z,4.20
2022-08-17T04:09:39.433Z,4.17
2022-08-17T04:12:06.374Z,4.63
2022-08-17T04:14:45.988Z,4.97
2022-08-17T04:17:22.326Z,4.40
2022-08-17T04:19:49.051Z,4.50
2022-08-17T04:22:31.095Z,4.50
2022-08-17T04:25:18.423Z,3.87
2022-08-17T04:27:45.125Z,3.57
2022-08-17T04:30:12.830Z,3.60
2022-08-17T04:33:08.599Z,4.67
2022-08-17T04:35:48.124Z,4.70
2022-08-17T04:38:20.519Z,3.50
2022-08-17T04:41:06.454Z,4.40
2022-08-17T04:43:35.052Z,3.70
2022-08-17T04:46:11.439Z,3.10
2022-08-17T04:48:44.918Z,4.10
2022-08-17T04:51:19.336Z,3.60
2022-08-17T04:53:54.104Z,3.63
2022-08-17T04:56:22.064Z,3.30
2022-08-17T04:58:51.635Z,3.83
2022-08-17T05:01:23.614Z,3.27
2022-08-17T05:03:56.479Z,3.50
2022-08-17T05:06:23.696Z,4.13
2022-08-17T05:08:50.940Z,3.53
2022-08-17T05:11:18.105Z,3.53
2022-08-17T05:13:45.030Z,4.90
2022-08-17T05:16:12.060Z,3.37
2022-08-17T05:18:39.110Z,4.10
2022-08-17T05:21:06.965Z,4.00
2022-08-17T05:23:42.055Z,4.30
2022-08-17T05:26:26.913Z,4.13
2022-08-17T05:28:57.187Z,4.47
2022-08-17T05:31:26.820Z,4.10
2022-08-17T05:33:53.996Z,4.27
2022-08-17T05:36:38.025Z,3.90
2022-08-17T05:39:15.681Z,3.53
2022-08-17T05:41:45.070Z,3.70
2022-08-17T05:44:11.760Z,3.30
2022-08-17T05:46:43.404Z,3.77
2022-08-17T05:49:18.058Z,3.93
2022-08-17T05:52:03.450Z,3.20
2022-08-17T05:54:58.977Z,3.43
2022-08-17T05:57:53.770Z,2.90
2022-08-17T06:00:26.296Z,3.40
2022-08-17T06:03:29.304Z,3.20
2022-08-17T06:06:33.586Z,3.60
2022-08-17T06:09:18.739Z,3.60
2022-08-17T06:12:14.335Z,3.33
2022-08-17T06:15:24.868Z,3.20
2022-08-17T06:17:58.595Z,3.17
2022-08-17T06:20:35.564Z,3.33
2022-08-17T06:23:08.506Z,3.30
2022-08-17T06:25:44.505Z,3.40
2022-08-17T06:28:16.189Z,2.83
2022-08-17T06:31:00.749Z,3.13
2022-08-17T06:33:35.583Z,3.30
2022-08-17T06:36:25.155Z,2.70
2022-08-17T06:39:12.575Z,3.00
2022-08-17T06:42:07.177Z,3.17
2022-08-17T06:44:51.079Z,3.37
2022-08-17T06:47:31.593Z,3.87
2022-08-17T06:50:08.842Z,3.23
2022-08-17T06:52:47.631Z,2.73
2022-08-17T06:55:21.298Z,3.20
2022-08-17T06:57:55.156Z,3.00
2022-08-17T07:00:33.616Z,3.27
2022-08-17T07:03:16.498Z,3.10
2022-08-17T07:06:05.407Z,3.10
2022-08-17T07:09:07.383Z,3.60
2022-08-17T07:11:50.362Z,3.10
2022-08-17T07:14:37.826Z,3.33
2022-08-17T07:17:18.244Z,3.80
2022-08-17T07:19:47.829Z,3.67
2022-08-17T07:22:57.555Z,2.93
2022-08-17T07:25:21.821Z,3.17
2022-08-17T07:27:53.993Z,3.10
2022-08-17T07:30:25.043Z,3.40
2022-08-17T07:33:02.444Z,3.30
2022-08-17T07:35:31.085Z,3.23
2022-08-17T07:38:25.045Z,3.07
2022-08-17T07:40:59.005Z,3.53
2022-08-17T07:43:29.409Z,4.33
2022-08-17T07:46:30.192Z,3.63
2022-08-17T07:49:18.024Z,3.27
2022-08-17T07:51:45.690Z,2.90
2022-08-17T07:54:15.302Z,2.60
2022-08-17T07:57:29.390Z,2.87
2022-08-17T07:59:59.642Z,2.73
2022-08-17T08:02:33.470Z,2.90
2022-08-17T08:05:32.872Z,3.00
2022-08-17T08:08:42.314Z,3.33
2022-08-17T08:11:15.686Z,3.50
2022-08-17T08:13:45.563Z,3.70
2022-08-17T08:16:24.471Z,3.13
2022-08-17T08:18:58.557Z,3.87
2022-08-17T08:21:49.158Z,2.70
2022-08-17T08:24:32.619Z,2.70
2022-08-17T08:27:33.550Z,2.53
2022-08-17T08:30:14.827Z,2.87
2022-08-17T08:32:54.040Z,2.30
2022-08-17T08:35:40.074Z,2.60
2022-08-17T08:38:26.725Z,3.27
2022-08-17T08:41:13.901Z,3.30
2022-08-17T08:44:03.633Z,2.90
2022-08-17T08:46:59.915Z,2.80
2022-08-17T08:50:01.212Z,3.40
2022-08-17T08:52:51.278Z,2.50
2022-08-17T08:55:41.678Z,2.87
2022-08-17T08:58:32.068Z,2.73
2022-08-17T09:01:09.398Z,2.50
2022-08-17T09:04:25.103Z,3.10
2022-08-17T09:07:10.885Z,3.07
2022-08-17T09:10:06.620Z,2.40
2022-08-17T09:13:09.590Z,2.73
2022-08-17T09:15:47.231Z,2.50
2022-08-17T09:18:59.171Z,2.40
2022-08-17T09:21:13.703Z,2.67
2022-08-17T09:23:49.462Z,2.47
2022-08-17T09:26:23.793Z,3.37
2022-08-17T09:28:53.277Z,2.63
2022-08-17T09:31:49.150Z,3.20
2022-08-17T09:34:19.437Z,2.87
2022-08-17T09:37:03.084Z,2.67
2022-08-17T09:40:02.816Z,2.50
2022-08-17T09:42:49.936Z,2.70
2022-08-17T09:45:45.290Z,2.60
2022-08-17T09:48:27.664Z,3.20
2022-08-17T09:51:45.254Z,2.87
2022-08-17T09:54:38.564Z,2.90
2022-08-17T09:57:28.449Z,2.50
2022-08-17T10:00:12.187Z,3.10
2022-08-17T10:02:51.516Z,3.73
2022-08-17T10:05:37.530Z,2.67
2022-08-17T10:08:21.862Z,3.17
2022-08-17T10:10:56.496Z,2.60
2022-08-17T10:13:52.778Z,3.10
2022-08-17T10:16:56.155Z,2.70
2022-08-17T10:19:39.054Z,2.50
2022-08-17T10:22:43.822Z,2.80
2022-08-17T10:25:53.515Z,2.57
2022-08-17T10:28:28.905Z,3.20
2022-08-17T10:31:30.961Z,2.57
2022-08-17T10:34:18.920Z,3.03
2022-08-17T10:37:19.734Z,2.70
2022-08-17T10:40:02.501Z,2.50
2022-08-17T10:42:34.736Z,2.97
2022-08-17T10:45:23.462Z,2.80
2022-08-17T10:48:05.673Z,2.70
2022-08-17T10:50:57.650Z,2.77
2022-08-17T10:53:33.546Z,2.87
2022-08-17T10:56:12.229Z,2.97
2022-08-17T10:58:49.574Z,2.40
2022-08-17T11:01:17.350Z,2.47
2022-08-17T11:03:54.911Z,3.00
2022-08-17T11:06:47.552Z,2.60
2022-08-17T11:09:39.265Z,2.67
2022-08-17T11:12:09.119Z,2.47
2022-08-17T11:14:54.734Z,3.10
2022-08-17T11:17:47.409Z,2.43
2022-08-17T11:20:45.089Z,2.67
2022-08-17T11:23:48.406Z,2.90
2022-08-17T11:26:36.570Z,2.60
2022-08-17T11:29:18.416Z,2.93
2022-08-17T11:32:00.236Z,2.50
2022-08-17T11:34:30.299Z,2.70
2022-08-17T11:37:31.133Z,2.50
2022-08-17T11:40:05.147Z,2.97
2022-08-17T11:42:54.289Z,2.53
2022-08-17T11:45:53.481Z,2.73
2022-08-17T11:49:02.782Z,3.23
2022-08-17T11:52:06.912Z,2.50
2022-08-17T11:54:45.242Z,2.57
2022-08-17T11:57:27.305Z,2.73
2022-08-17T11:59:53.938Z,2.50
2022-08-17T12:02:32.697Z,3.83
2022-08-17T12:05:14.573Z,2.10
2022-08-17T12:08:04.312Z,2.53
2022-08-17T12:10:35.421Z,2.63
2022-08-17T12:13:11.024Z,2.30
2022-08-17T12:15:42.427Z,3.07
2022-08-17T12:18:18.255Z,2.90
2022-08-17T12:20:54.603Z,2.33
2022-08-17T12:23:34.080Z,2.43
2022-08-17T12:26:08.977Z,2.97
2022-08-17T12:28:38.778Z,1.97
2022-08-17T12:31:17.808Z,2.60
2022-08-17T12:33:46.308Z,2.97
2022-08-17T12:36:20.887Z,2.70
2022-08-17T12:39:13.878Z,3.07
2022-08-17T12:41:44.412Z,2.60
2022-08-17T12:44:24.096Z,2.63
2022-08-17T12:46:56.070Z,2.70
2022-08-17T12:49:25.848Z,2.53
2022-08-17T12:52:15.586Z,2.57
2022-08-17T12:55:12.165Z,3.00
2022-08-17T12:57:38.961Z,2.80
2022-08-17T13:00:17.681Z,2.90
2022-08-17T13:02:52.214Z,3.17
2022-08-17T13:05:37.448Z,2.53
2022-08-17T13:08:18.351Z,2.37
2022-08-17T13:10:55.588Z,2.50
2022-08-17T13:13:28.362Z,2.67
2022-08-17T13:15:58.588Z,2.60
2022-08-17T13:18:47.343Z,2.40
2022-08-17T13:21:27.036Z,2.80
2022-08-17T13:24:10.170Z,3.17
2022-08-17T13:26:48.544Z,2.43
2022-08-17T13:29:35.606Z,2.53
2022-08-17T13:32:13.437Z,2.97
2022-08-17T13:35:12.090Z,3.23
2022-08-17T13:38:01.310Z,2.77
2022-08-17T13:40:37.549Z,2.20
2022-08-17T13:43:04.393Z,2.43
2022-08-17T13:45:35.477Z,2.70
2022-08-17T13:48:16.966Z,3.07
2022-08-17T13:51:19.969Z,2.40
2022-08-17T13:53:53.190Z,2.10
2022-08-17T13:57:07.376Z,2.27
2022-08-17T13:59:54.348Z,1.97
2022-08-17T14:02:27.789Z,2.30
2022-08-17T14:04:56.592Z,2.00
2022-08-17T14:07:27.804Z,2.47
2022-08-17T14:10:02.705Z,2.37
2022-08-17T14:12:32.098Z,2.40
2022-08-17T14:14:59.447Z,2.30
2022-08-17T14:17:28.872Z,2.50
2022-08-17T14:19:55.888Z,2.40
2022-08-17T14:22:30.530Z,2.60
2022-08-17T14:24:58.809Z,3.17
2022-08-17T14:27:28.034Z,2.20
2022-08-17T14:29:56.149Z,2.00
2022-08-17T14:32:30.201Z,2.40
2022-08-17T14:34:57.818Z,2.07
2022-08-17T14:37:27.955Z,2.77
2022-08-17T14:40:00.347Z,2.53
2022-08-17T14:42:30.130Z,2.47
2022-08-17T14:44:58.671Z,2.20
2022-08-17T14:47:26.608Z,2.43
2022-08-17T14:49:53.959Z,2.33
2022-08-17T14:52:21.844Z,2.47
2022-08-17T14:54:51.292Z,2.77
2022-08-17T14:57:33.446Z,2.70
2022-08-17T15:00:02.150Z,2.33
2022-08-17T15:02:29.957Z,2.60
2022-08-17T15:05:04.135Z,3.50
2022-08-17T15:07:31.528Z,2.43
2022-08-17T15:10:00.688Z,2.30
2022-08-17T15:12:32.373Z,2.50
2022-08-17T15:15:00.927Z,3.10
2022-08-17T15:17:44.782Z,2.90
2022-08-17T15:20:22.919Z,2.30
2022-08-17T15:22:50.840Z,2.57
2022-08-17T15:25:19.701Z,2.80
2022-08-17T15:27:47.388Z,2.67
2022-08-17T15:30:15.718Z,2.40
2022-08-17T15:32:50.666Z,2.97
2022-08-17T15:35:27.107Z,2.53
2022-08-17T15:38:03.534Z,2.50
2022-08-17T15:40:34.930Z,2.20
2022-08-17T15:43:32.552Z,2.43
2022-08-17T15:46:12.185Z,2.47
2022-08-17T15:48:41.801Z,2.20
2022-08-17T15:51:11.153Z,2.03
2022-08-17T15:53:38.541Z,2.40
2022-08-17T15:56:06.283Z,2.40
2022-08-17T15:58:34.909Z,2.53
2022-08-17T16:01:14.853Z,2.20
2022-08-17T16:04:05.123Z,2.20
2022-08-17T16:06:33.588Z,2.03
2022-08-17T16:09:00.432Z,2.10
2022-08-17T16:11:27.260Z,2.33
2022-08-17T16:13:54.972Z,2.33
2022-08-17T16:16:23.680Z,2.23
2022-08-17T16:18:53.706Z,2.10
2022-08-17T16:21:25.692Z,2.30
2022-08-17T16:24:03.834Z,2.40
2022-08-17T16:26:32.908Z,2.33
2022-08-17T16:29:02.214Z,2.37
2022-08-17T16:31:29.344Z,2.03
2022-08-17T16:34:16.348Z,1.90
2022-08-17T16:36:53.572Z,2.43
2022-08-17T16:39:27.556Z,2.77
2022-08-17T16:41:55.929Z,2.33
2022-08-17T16:44:23.193Z,2.00
2022-08-17T16:46:50.492Z,2.20
2022-08-17T16:49:35.109Z,2.50
2022-08-17T16:52:04.790Z,2.23
2022-08-17T16:54:31.858Z,1.93
2022-08-17T16:56:58.793Z,1.73
2022-08-17T16:59:30.407Z,2.10
2022-08-17T17:02:04.762Z,2.47
2022-08-17T17:04:35.042Z,2.37
2022-08-17T17:07:33.634Z,2.00
2022-08-17T17:10:10.606Z,1.90
2022-08-17T17:13:01.245Z,2.30
2022-08-17T17:15:35.488Z,2.80
2022-08-17T17:18:06.774Z,2.10
2022-08-17T17:20:45.754Z,2.40
2022-08-17T17:23:46.978Z,3.30
2022-08-17T17:26:28.766Z,3.10
2022-08-17T17:29:18.214Z,4.13
2022-08-17T17:32:13.698Z,3.10
2022-08-17T17:34:50.524Z,2.60
2022-08-17T17:37:24.453Z,2.37
2022-08-17T17:39:59.902Z,2.30
2022-08-17T17:42:31.356Z,2.20
2022-08-17T17:45:23.990Z,2.80
2022-08-17T17:47:50.923Z,2.70
2022-08-17T17:50:21.356Z,2.63
2022-08-17T17:53:02.922Z,2.57
2022-08-17T17:55:47.112Z,2.53
2022-08-17T17:58:42.670Z,3.00
2022-08-17T18:01:24.870Z,2.90
2022-08-17T18:04:20.543Z,2.63
2022-08-17T18:06:58.651Z,3.10
2022-08-17T18:09:57.647Z,2.37
2022-08-17T18:12:43.310Z,2.47
2022-08-17T18:15:21.867Z,3.00
2022-08-17T18:18:31.192Z,2.97
2022-08-17T18:21:06.126Z,2.70
2022-08-17T18:23:33.570Z,2.73
2022-08-17T18:26:02.035Z,3.27
2022-08-17T18:28:43.871Z,4.00
2022-08-17T18:31:16.680Z,2.80
2022-08-17T18:33:48.038Z,3.37
2022-08-17T18:36:31.206Z,2.97
2022-08-17T18:39:20.914Z,3.40
2022-08-17T18:41:54.158Z,3.30
2022-08-17T18:44:38.164Z,3.20
2022-08-17T18:47:04.985Z,3.30
2022-08-17T18:49:31.647Z,3.60
2022-08-17T18:52:33.596Z,2.87
2022-08-17T18:55:00.333Z,3.83
2022-08-17T18:57:37.798Z,3.07
2022-08-17T19:00:39.387Z,3.67
2022-08-17T19:03:25.886Z,3.23
2022-08-17T19:06:15.152Z,2.57
2022-08-17T19:08:42.094Z,2.80
2022-08-17T19:11:23.497Z,2.60
2022-08-17T19:14:13.350Z,2.70
2022-08-17T19:16:53.579Z,3.13
2022-08-17T19:19:26.537Z,2.53
2022-08-17T19:22:43.744Z,3.20
2022-08-17T19:25:21.893Z,2.80
2022-08-17T19:27:57.713Z,2.47
2022-08-17T19:30:25.947Z,3.00
2022-08-17T19:32:53.135Z,3.23
2022-08-17T19:35:22.094Z,3.10
2022-08-17T19:38:17.940Z,3.17
2022-08-17T19:40:59.053Z,2.80
2022-08-17T19:43:52.254Z,3.27
2022-08-17T19:46:49.993Z,3.53
2022-08-17T19:49:33.497Z,3.73
2022-08-17T19:52:19.735Z,3.40
2022-08-17T19:54:55.586Z,3.47
2022-08-17T19:57:49.073Z,4.47
2022-08-17T20:00:18.002Z,4.30
2022-08-17T20:02:57.416Z,3.93
2022-08-17T20:06:09.179Z,3.67
2022-08-17T20:08:44.760Z,2.90
2022-08-17T20:11:20.241Z,4.10
2022-08-17T20:14:13.092Z,3.50
2022-08-17T20:16:40.065Z,3.67
2022-08-17T20:19:06.709Z,3.57
2022-08-17T20:21:49.634Z,3.70
2022-08-17T20:24:43.893Z,4.07
2022-08-17T20:28:06.612Z,4.13
2022-08-17T20:30:42.180Z,3.47
2022-08-17T20:33:24.479Z,3.90
2022-08-17T20:36:05.270Z,4.03
2022-08-17T20:38:57.920Z,3.63
2022-08-17T20:41:28.090Z,3.30
2022-08-17T20:43:58.746Z,3.90
2022-08-17T20:46:56.513Z,3.93
2022-08-17T20:49:33.615Z,3.83
2022-08-17T20:52:07.693Z,3.47
2022-08-17T20:54:46.499Z,3.60
2022-08-17T20:57:31.634Z,3.70
2022-08-17T21:00:17.012Z,3.27
2022-08-17T21:02:49.604Z,3.03
2022-08-17T21:05:30.209Z,2.60
2022-08-17T21:08:00.827Z,3.27
2022-08-17T21:10:27.428Z,2.77
2022-08-17T21:13:13.481Z,3.43
2022-08-17T21:15:58.869Z,3.13
2022-08-17T21:18:28.560Z,3.30
2022-08-17T21:21:00.859Z,3.13
2022-08-17T21:23:47.416Z,3.50
2022-08-17T21:26:50.110Z,3.17
2022-08-17T21:29:32.399Z,2.90
2022-08-17T21:32:03.595Z,3.10
2022-08-17T21:34:36.492Z,2.70
2022-08-17T21:37:26.192Z,3.13
2022-08-17T21:40:18.270Z,3.27
2022-08-17T21:42:55.626Z,3.60
2022-08-17T21:45:36.362Z,3.80
2022-08-17T21:48:20.666Z,3.70
2022-08-17T21:51:10.424Z,3.50
2022-08-17T21:53:55.729Z,3.60
2022-08-17T21:56:45.578Z,3.63
2022-08-17T21:59:19.330Z,3.53
2022-08-17T22:02:19.491Z,4.60
2022-08-17T22:05:04.090Z,3.50
2022-08-17T22:07:45.075Z,3.90
2022-08-17T22:10:30.629Z,3.57
2022-08-17T22:13:18.413Z,3.47
2022-08-17T22:16:27.770Z,3.73
2022-08-17T22:18:55.687Z,3.90
2022-08-17T22:21:25.056Z,3.20
2022-08-17T22:24:07.669Z,3.20
2022-08-17T22:26:59.458Z,3.80
2022-08-17T22:29:44.178Z,3.47
2022-08-17T22:32:11.070Z,3.10
2022-08-17T22:34:40.514Z,3.30
2022-08-17T22:37:27.311Z,3.57
2022-08-17T22:39:58.987Z,2.97
2022-08-17T22:42:25.863Z,3.23
2022-08-17T22:44:54.557Z,3.63
2022-08-17T22:47:29.317Z,3.10
2022-08-17T22:50:02.344Z,2.97
2022-08-17T22:52:34.424Z,3.70
2022-08-17T22:55:36.483Z,2.80
2022-08-17T22:58:33.530Z,3.07
2022-08-17T23:01:30.349Z,3.00
2022-08-17T23:04:01.189Z,2.77
2022-08-17T23:06:29.078Z,3.37
2022-08-17T23:08:57.578Z,3.20
2022-08-17T23:11:42.952Z,4.40
2022-08-17T23:14:15.873Z,3.90
2022-08-17T23:16:42.982Z,4.80
2022-08-17T23:19:11.331Z,4.67
2022-08-17T23:21:38.262Z,4.90
2022-08-17T23:24:06.759Z,5.37
2022-08-17T23:26:37.884Z,4.87
2022-08-17T23:29:06.723Z,5.90
2022-08-17T23:31:35.409Z,4.73
2022-08-17T23:34:04.183Z,5.23
2022-08-17T23:36:32.944Z,5.60
2022-08-17T23:38:59.642Z,4.50
2022-08-17T23:41:29.349Z,5.10
2022-08-17T23:43:56.157Z,6.30
2022-08-17T23:46:24.522Z,5.40
2022-08-17T23:48:54.821Z,5.20
2022-08-17T23:51:26.468Z,5.50
2022-08-17T23:53:58.152Z,5.53
2022-08-17T23:56:25.767Z,5.63
2022-08-17T23:58:54.784Z,4.70
